Terminal Aerodrome Forecast
Issued by NWS Quad Cities IA IL

Home | Current Version | Previous Version | Text Only | Print | Product List | Glossary On
Versions: 1 2 3 4 5 6 7 8 9 10 11 12 13 14 15 16 17 18 19 20 21 22 23 24 25 26 27 28 29 30 31 32 33 34 35 36 37 38 39 40 41 42 43 44 45 46 47 48 49 50
000
FTUS43 KDVN 160520
TAFMLI
TAF
KMLI 160520Z 1606/1706 25010KT P6SM OVC013
      TEMPO 1606/1607 -DZ
     FM161300 34010KT P6SM OVC020
     FM161500 01009KT P6SM SCT025
     FM161800 07006KT P6SM BKN025=

USA.gov is the U.S. government's official web portal to all federal, state and local government web resources and services.